Terminal Aerodrome Forecast
Issued by NWS

Home | Current Version | Previous Version | Text Only | Print | Product List | Glossary On
Versions: 1 2 3 4 5 6 7 8 9 10 11 12 13 14 15 16 17 18 19 20 21 22 23 24
293
FTUS45 KSLC 140536
TAFEVW
TAF
KEVW 140536Z 1406/1506 25013KT P6SM SCT040 BKN090
     FM141400 25016G24KT P6SM VCSH SCT020 BKN040
     FM142100 24020G30KT P6SM SCT040 BKN070
     FM150400 25016G23KT P6SM -SHSN BKN040=

USA.gov is the U.S. government's official web portal to all federal, state and local government web resources and services.